Pagina principale
METAR-TAF:

METAR-TAF

Aeroporti :

Aeroporto di Cefalonia

Cefalonia, Grecia

latitudine: 38-07N, longitudine: 020-30E, altezza: 19 m

Osservazione

Il bollettino è stato emesso 5 ore e 27 minuti fa, alle 17:50 UTC
Vento 4 kt da nord-est
Temperature 14°C
Umidità 82%
Pressione 1025 hPa
Visibilità 10 km o più
Poco nuvoloso ad un'altezza di 1800 ft

METAR: LGKF 121750Z 05004KT 9999 FEW018 14/11 Q1025

Ora: 01:17 (23:17 UTC)

Previsione

Il bollettino è stato emesso 3 ore e 17 minuti fa, alle 20:00 UTC
Previsione valida dal 12 alle 21 UTC al 13 alle 06 UTC
Vento 10 kt da est/nord-est
Visibilità 10 km o più
Poco nuvoloso ad un'altezza di 1800 ft

TAF: LGKF 122000Z 1221/1306 06010KT 9999 FEW018

Osservazioni e previsioni meteorologiche di più di 4000 aeroporti (messaggi METAR e TAF).

Le stazioni disponibili sono rappresentate dai dischi gialli e rossi sulla carta.

Puntare il mouse per vedere il nome della stazione.

Clicca sopra per visualizzare le osservazioni e previsioni meteorologiche.

Per cambiare la mappa : fare clic sui pulsanti verdi con una croce nera per ingrandire, il pulsante verde con un trattino per diminuire, o sulla freccia verde per le mappe adiacenti.


METAR-TAF: